sensor_id;sensor_type;location;lat;lon;timestamp;P1;durP1;ratioP1;P2;durP2;ratioP2
10191;SDS011;17580;50.850;4.504;2022-07-06T00:00:59;1.33;;;1.30;;
10191;SDS011;17580;50.850;4.504;2022-07-06T00:03:26;1.43;;;1.33;;
10191;SDS011;17580;50.850;4.504;2022-07-06T00:05:54;1.73;;;1.40;;
10191;SDS011;17580;50.850;4.504;2022-07-06T00:08:22;1.20;;;1.20;;
10191;SDS011;17580;50.850;4.504;2022-07-06T00:10:49;1.30;;;1.30;;
10191;SDS011;17580;50.850;4.504;2022-07-06T00:13:16;1.43;;;1.33;;
10191;SDS011;17580;50.850;4.504;2022-07-06T00:15:43;1.53;;;1.43;;
10191;SDS011;17580;50.850;4.504;2022-07-06T00:18:09;1.37;;;1.27;;
10191;SDS011;17580;50.850;4.504;2022-07-06T00:20:36;1.50;;;1.40;;
10191;SDS011;17580;50.850;4.504;2022-07-06T00:23:05;1.20;;;1.20;;
10191;SDS011;17580;50.850;4.504;2022-07-06T00:25:32;1.80;;;1.50;;
10191;SDS011;17580;50.850;4.504;2022-07-06T00:27:59;2.83;;;1.50;;
10191;SDS011;17580;50.850;4.504;2022-07-06T00:30:26;1.80;;;1.70;;
10191;SDS011;17580;50.850;4.504;2022-07-06T00:32:53;1.77;;;1.50;;
10191;SDS011;17580;50.850;4.504;2022-07-06T00:35:20;1.50;;;1.40;;
10191;SDS011;17580;50.850;4.504;2022-07-06T00:37:47;2.10;;;1.23;;
10191;SDS011;17580;50.850;4.504;2022-07-06T00:40:15;1.67;;;1.57;;
10191;SDS011;17580;50.850;4.504;2022-07-06T00:42:42;1.20;;;1.20;;
10191;SDS011;17580;50.850;4.504;2022-07-06T00:45:10;1.60;;;1.50;;
10191;SDS011;17580;50.850;4.504;2022-07-06T00:47:39;1.60;;;1.50;;
10191;SDS011;17580;50.850;4.504;2022-07-06T00:50:06;2.03;;;1.57;;
10191;SDS011;17580;50.850;4.504;2022-07-06T00:52:43;1.57;;;1.47;;
10191;SDS011;17580;50.850;4.504;2022-07-06T00:55:11;2.00;;;1.90;;
10191;SDS011;17580;50.850;4.504;2022-07-06T00:57:42;1.63;;;1.33;;
10191;SDS011;17580;50.850;4.504;2022-07-06T01:00:10;9.00;;;1.63;;
10191;SDS011;17580;50.850;4.504;2022-07-06T01:02:38;1.50;;;1.40;;
10191;SDS011;17580;50.850;4.504;2022-07-06T01:05:06;1.53;;;1.43;;
10191;SDS011;17580;50.850;4.504;2022-07-06T01:07:35;1.20;;;1.20;;
10191;SDS011;17580;50.850;4.504;2022-07-06T01:10:02;2.20;;;1.47;;
10191;SDS011;17580;50.850;4.504;2022-07-06T01:12:30;2.30;;;1.40;;
10191;SDS011;17580;50.850;4.504;2022-07-06T01:14:59;1.30;;;1.30;;
10191;SDS011;17580;50.850;4.504;2022-07-06T01:17:26;1.43;;;1.43;;
10191;SDS011;17580;50.850;4.504;2022-07-06T01:19:54;1.43;;;1.43;;
10191;SDS011;17580;50.850;4.504;2022-07-06T01:22:22;1.77;;;1.67;;
10191;SDS011;17580;50.850;4.504;2022-07-06T01:24:49;1.60;;;1.50;;
10191;SDS011;17580;50.850;4.504;2022-07-06T01:27:16;1.73;;;1.37;;
10191;SDS011;17580;50.850;4.504;2022-07-06T01:29:43;3.50;;;1.70;;
10191;SDS011;17580;50.850;4.504;2022-07-06T01:32:10;1.70;;;1.60;;
10191;SDS011;17580;50.850;4.504;2022-07-06T01:34:37;1.43;;;1.33;;
10191;SDS011;17580;50.850;4.504;2022-07-06T01:37:04;1.40;;;1.40;;
10191;SDS011;17580;50.850;4.504;2022-07-06T01:39:32;1.40;;;1.40;;
10191;SDS011;17580;50.850;4.504;2022-07-06T01:41:59;1.60;;;1.50;;
10191;SDS011;17580;50.850;4.504;2022-07-06T01:44:26;1.87;;;1.50;;
10191;SDS011;17580;50.850;4.504;2022-07-06T01:46:53;1.60;;;1.50;;
10191;SDS011;17580;50.850;4.504;2022-07-06T01:49:20;1.40;;;1.40;;
10191;SDS011;17580;50.850;4.504;2022-07-06T01:51:46;1.57;;;1.47;;
10191;SDS011;17580;50.850;4.504;2022-07-06T01:54:13;3.57;;;1.60;;
10191;SDS011;17580;50.850;4.504;2022-07-06T01:56:42;1.57;;;1.57;;
10191;SDS011;17580;50.850;4.504;2022-07-06T01:59:09;1.30;;;1.23;;
10191;SDS011;17580;50.850;4.504;2022-07-06T02:01:36;1.83;;;1.50;;
10191;SDS011;17580;50.850;4.504;2022-07-06T02:04:02;1.30;;;1.30;;
10191;SDS011;17580;50.850;4.504;2022-07-06T02:06:29;1.43;;;1.40;;
10191;SDS011;17580;50.850;4.504;2022-07-06T02:08:56;1.80;;;1.70;;
10191;SDS011;17580;50.850;4.504;2022-07-06T02:11:23;1.77;;;1.67;;
10191;SDS011;17580;50.850;4.504;2022-07-06T02:13:51;1.67;;;1.57;;
10191;SDS011;17580;50.850;4.504;2022-07-06T02:16:18;1.93;;;1.83;;
10191;SDS011;17580;50.850;4.504;2022-07-06T02:18:45;1.47;;;1.43;;
10191;SDS011;17580;50.850;4.504;2022-07-06T02:21:12;1.70;;;1.60;;
10191;SDS011;17580;50.850;4.504;2022-07-06T02:23:39;1.70;;;1.60;;
10191;SDS011;17580;50.850;4.504;2022-07-06T02:26:06;1.67;;;1.57;;
10191;SDS011;17580;50.850;4.504;2022-07-06T02:28:33;2.37;;;1.60;;
10191;SDS011;17580;50.850;4.504;2022-07-06T02:31:01;1.50;;;1.40;;
10191;SDS011;17580;50.850;4.504;2022-07-06T02:33:28;1.97;;;1.87;;
10191;SDS011;17580;50.850;4.504;2022-07-06T02:35:55;2.00;;;1.70;;
10191;SDS011;17580;50.850;4.504;2022-07-06T02:38:22;1.63;;;1.53;;
10191;SDS011;17580;50.850;4.504;2022-07-06T02:40:49;1.70;;;1.60;;
10191;SDS011;17580;50.850;4.504;2022-07-06T02:43:16;1.73;;;1.63;;
10191;SDS011;17580;50.850;4.504;2022-07-06T02:45:43;1.97;;;1.77;;
10191;SDS011;17580;50.850;4.504;2022-07-06T02:48:11;2.30;;;1.70;;
10191;SDS011;17580;50.850;4.504;2022-07-06T02:50:38;1.80;;;1.70;;
10191;SDS011;17580;50.850;4.504;2022-07-06T02:53:05;1.90;;;1.63;;
10191;SDS011;17580;50.850;4.504;2022-07-06T02:55:32;1.97;;;1.80;;
10191;SDS011;17580;50.850;4.504;2022-07-06T02:57:59;1.70;;;1.60;;
10191;SDS011;17580;50.850;4.504;2022-07-06T03:00:26;1.63;;;1.53;;
10191;SDS011;17580;50.850;4.504;2022-07-06T03:02:53;1.80;;;1.70;;
10191;SDS011;17580;50.850;4.504;2022-07-06T03:05:21;1.70;;;1.60;;
10191;SDS011;17580;50.850;4.504;2022-07-06T03:07:48;1.60;;;1.50;;
10191;SDS011;17580;50.850;4.504;2022-07-06T03:10:15;1.70;;;1.60;;
10191;SDS011;17580;50.850;4.504;2022-07-06T03:12:42;2.00;;;1.90;;
10191;SDS011;17580;50.850;4.504;2022-07-06T03:15:09;2.33;;;2.13;;
10191;SDS011;17580;50.850;4.504;2022-07-06T03:17:37;3.90;;;1.73;;
10191;SDS011;17580;50.850;4.504;2022-07-06T03:20:04;2.20;;;2.00;;
10191;SDS011;17580;50.850;4.504;2022-07-06T03:22:34;1.80;;;1.70;;
10191;SDS011;17580;50.850;4.504;2022-07-06T03:25:01;2.10;;;1.90;;
10191;SDS011;17580;50.850;4.504;2022-07-06T03:27:27;2.10;;;1.67;;
10191;SDS011;17580;50.850;4.504;2022-07-06T03:29:54;1.90;;;1.80;;
10191;SDS011;17580;50.850;4.504;2022-07-06T03:32:21;1.63;;;1.53;;
10191;SDS011;17580;50.850;4.504;2022-07-06T03:34:48;1.90;;;1.80;;
10191;SDS011;17580;50.850;4.504;2022-07-06T03:37:15;1.37;;;1.37;;
10191;SDS011;17580;50.850;4.504;2022-07-06T03:39:43;1.63;;;1.50;;
10191;SDS011;17580;50.850;4.504;2022-07-06T03:42:10;1.63;;;1.53;;
10191;SDS011;17580;50.850;4.504;2022-07-06T03:44:37;2.20;;;1.90;;
10191;SDS011;17580;50.850;4.504;2022-07-06T03:47:04;1.53;;;1.47;;
10191;SDS011;17580;50.850;4.504;2022-07-06T03:49:31;2.47;;;1.83;;
10191;SDS011;17580;50.850;4.504;2022-07-06T03:51:58;1.60;;;1.50;;
10191;SDS011;17580;50.850;4.504;2022-07-06T03:54:25;1.97;;;1.73;;
10191;SDS011;17580;50.850;4.504;2022-07-06T03:56:53;1.37;;;1.37;;
10191;SDS011;17580;50.850;4.504;2022-07-06T03:59:20;2.00;;;1.90;;
10191;SDS011;17580;50.850;4.504;2022-07-06T04:01:47;1.57;;;1.47;;
10191;SDS011;17580;50.850;4.504;2022-07-06T04:04:14;1.63;;;1.63;;
10191;SDS011;17580;50.850;4.504;2022-07-06T04:06:41;2.10;;;1.90;;
10191;SDS011;17580;50.850;4.504;2022-07-06T04:09:08;1.50;;;1.50;;
10191;SDS011;17580;50.850;4.504;2022-07-06T04:11:36;2.30;;;1.60;;
10191;SDS011;17580;50.850;4.504;2022-07-06T04:14:04;1.60;;;1.50;;
10191;SDS011;17580;50.850;4.504;2022-07-06T04:16:31;1.80;;;1.70;;
10191;SDS011;17580;50.850;4.504;2022-07-06T04:18:58;1.40;;;1.30;;
10191;SDS011;17580;50.850;4.504;2022-07-06T04:21:25;1.90;;;1.63;;
10191;SDS011;17580;50.850;4.504;2022-07-06T04:23:52;2.50;;;1.67;;
10191;SDS011;17580;50.850;4.504;2022-07-06T04:26:18;1.77;;;1.67;;
10191;SDS011;17580;50.850;4.504;2022-07-06T04:28:45;2.10;;;1.77;;
10191;SDS011;17580;50.850;4.504;2022-07-06T04:31:14;2.87;;;1.47;;
10191;SDS011;17580;50.850;4.504;2022-07-06T04:33:41;1.60;;;1.50;;
10191;SDS011;17580;50.850;4.504;2022-07-06T04:36:08;1.80;;;1.70;;
10191;SDS011;17580;50.850;4.504;2022-07-06T04:38:35;1.80;;;1.70;;
10191;SDS011;17580;50.850;4.504;2022-07-06T04:41:02;1.40;;;1.40;;
10191;SDS011;17580;50.850;4.504;2022-07-06T04:43:29;1.20;;;1.20;;
10191;SDS011;17580;50.850;4.504;2022-07-06T04:45:56;1.60;;;1.50;;
10191;SDS011;17580;50.850;4.504;2022-07-06T04:48:25;1.97;;;1.57;;
10191;SDS011;17580;50.850;4.504;2022-07-06T04:50:51;1.90;;;1.80;;
10191;SDS011;17580;50.850;4.504;2022-07-06T04:53:18;1.80;;;1.70;;
10191;SDS011;17580;50.850;4.504;2022-07-06T04:55:45;1.53;;;1.50;;
10191;SDS011;17580;50.850;4.504;2022-07-06T04:58:12;1.73;;;1.63;;
10191;SDS011;17580;50.850;4.504;2022-07-06T05:00:39;1.70;;;1.60;;
10191;SDS011;17580;50.850;4.504;2022-07-06T05:03:06;2.87;;;1.70;;
10191;SDS011;17580;50.850;4.504;2022-07-06T05:05:34;1.95;;;1.85;;
10191;SDS011;17580;50.850;4.504;2022-07-06T05:08:01;1.47;;;1.40;;
10191;SDS011;17580;50.850;4.504;2022-07-06T05:10:28;1.50;;;1.40;;
10191;SDS011;17580;50.850;4.504;2022-07-06T05:12:56;1.57;;;1.57;;
10191;SDS011;17580;50.850;4.504;2022-07-06T05:15:23;1.63;;;1.60;;
10191;SDS011;17580;50.850;4.504;2022-07-06T05:17:50;1.80;;;1.50;;
10191;SDS011;17580;50.850;4.504;2022-07-06T05:20:17;1.80;;;1.70;;
10191;SDS011;17580;50.850;4.504;2022-07-06T05:22:45;1.70;;;1.60;;
10191;SDS011;17580;50.850;4.504;2022-07-06T05:25:12;1.27;;;1.27;;
10191;SDS011;17580;50.850;4.504;2022-07-06T05:27:39;1.60;;;1.50;;
10191;SDS011;17580;50.850;4.504;2022-07-06T05:30:07;1.50;;;1.50;;
10191;SDS011;17580;50.850;4.504;2022-07-06T05:32:34;1.80;;;1.70;;
10191;SDS011;17580;50.850;4.504;2022-07-06T05:35:01;1.87;;;1.77;;
10191;SDS011;17580;50.850;4.504;2022-07-06T05:37:28;1.60;;;1.60;;
10191;SDS011;17580;50.850;4.504;2022-07-06T05:39:57;1.70;;;1.60;;
10191;SDS011;17580;50.850;4.504;2022-07-06T05:42:24;1.90;;;1.80;;
10191;SDS011;17580;50.850;4.504;2022-07-06T05:44:54;1.47;;;1.47;;
10191;SDS011;17580;50.850;4.504;2022-07-06T05:47:21;1.80;;;1.70;;
10191;SDS011;17580;50.850;4.504;2022-07-06T05:50:06;3.13;;;2.27;;
10191;SDS011;17580;50.850;4.504;2022-07-06T05:52:39;2.20;;;2.00;;
10191;SDS011;17580;50.850;4.504;2022-07-06T05:55:09;2.17;;;1.67;;
10191;SDS011;17580;50.850;4.504;2022-07-06T05:57:36;2.30;;;1.93;;
10191;SDS011;17580;50.850;4.504;2022-07-06T06:00:05;2.27;;;2.10;;
10191;SDS011;17580;50.850;4.504;2022-07-06T06:02:37;2.50;;;2.00;;
10191;SDS011;17580;50.850;4.504;2022-07-06T06:05:05;3.80;;;2.40;;
10191;SDS011;17580;50.850;4.504;2022-07-06T06:07:33;2.37;;;2.17;;
10191;SDS011;17580;50.850;4.504;2022-07-06T06:10:02;2.70;;;2.50;;
10191;SDS011;17580;50.850;4.504;2022-07-06T06:12:30;3.10;;;2.23;;
10191;SDS011;17580;50.850;4.504;2022-07-06T06:14:58;2.20;;;2.03;;
10191;SDS011;17580;50.850;4.504;2022-07-06T06:17:25;2.90;;;1.90;;
10191;SDS011;17580;50.850;4.504;2022-07-06T06:19:52;2.57;;;2.20;;
10191;SDS011;17580;50.850;4.504;2022-07-06T06:22:19;2.20;;;2.00;;
10191;SDS011;17580;50.850;4.504;2022-07-06T06:24:46;3.90;;;2.40;;
10191;SDS011;17580;50.850;4.504;2022-07-06T06:27:13;3.20;;;2.30;;
10191;SDS011;17580;50.850;4.504;2022-07-06T06:29:42;2.73;;;2.40;;
10191;SDS011;17580;50.850;4.504;2022-07-06T06:32:09;4.00;;;2.97;;
10191;SDS011;17580;50.850;4.504;2022-07-06T06:34:37;4.07;;;3.10;;
10191;SDS011;17580;50.850;4.504;2022-07-06T06:37:04;2.97;;;2.73;;
10191;SDS011;17580;50.850;4.504;2022-07-06T06:39:31;6.47;;;2.60;;
10191;SDS011;17580;50.850;4.504;2022-07-06T06:41:58;3.10;;;2.80;;
10191;SDS011;17580;50.850;4.504;2022-07-06T06:44:25;3.10;;;2.17;;
10191;SDS011;17580;50.850;4.504;2022-07-06T06:46:53;3.50;;;2.10;;
10191;SDS011;17580;50.850;4.504;2022-07-06T06:49:20;3.67;;;2.07;;
10191;SDS011;17580;50.850;4.504;2022-07-06T06:51:47;3.57;;;2.00;;
10191;SDS011;17580;50.850;4.504;2022-07-06T06:54:14;2.10;;;1.90;;
10191;SDS011;17580;50.850;4.504;2022-07-06T06:56:41;2.47;;;1.80;;
10191;SDS011;17580;50.850;4.504;2022-07-06T06:59:07;2.37;;;1.70;;
10191;SDS011;17580;50.850;4.504;2022-07-06T07:01:34;1.83;;;1.43;;
10191;SDS011;17580;50.850;4.504;2022-07-06T07:04:03;2.83;;;2.53;;
10191;SDS011;17580;50.850;4.504;2022-07-06T07:06:31;1.97;;;1.67;;
10191;SDS011;17580;50.850;4.504;2022-07-06T07:08:58;2.13;;;1.40;;
10191;SDS011;17580;50.850;4.504;2022-07-06T07:11:25;4.93;;;1.97;;
10191;SDS011;17580;50.850;4.504;2022-07-06T07:13:52;5.50;;;1.70;;
10191;SDS011;17580;50.850;4.504;2022-07-06T07:16:19;2.10;;;1.53;;
10191;SDS011;17580;50.850;4.504;2022-07-06T07:18:46;2.97;;;1.40;;
10191;SDS011;17580;50.850;4.504;2022-07-06T07:21:14;1.60;;;1.50;;
10191;SDS011;17580;50.850;4.504;2022-07-06T07:23:41;3.03;;;1.70;;
10191;SDS011;17580;50.850;4.504;2022-07-06T07:26:08;2.50;;;1.70;;
10191;SDS011;17580;50.850;4.504;2022-07-06T07:28:35;2.30;;;1.93;;
10191;SDS011;17580;50.850;4.504;2022-07-06T07:31:02;1.70;;;1.60;;
10191;SDS011;17580;50.850;4.504;2022-07-06T07:33:30;1.70;;;1.60;;
10191;SDS011;17580;50.850;4.504;2022-07-06T07:35:57;1.80;;;1.63;;
10191;SDS011;17580;50.850;4.504;2022-07-06T07:38:25;2.50;;;1.57;;
10191;SDS011;17580;50.850;4.504;2022-07-06T07:40:52;4.67;;;1.70;;
10191;SDS011;17580;50.850;4.504;2022-07-06T07:43:20;2.83;;;1.80;;
10191;SDS011;17580;50.850;4.504;2022-07-06T07:45:47;2.80;;;2.20;;
10191;SDS011;17580;50.850;4.504;2022-07-06T07:48:14;3.30;;;2.07;;
10191;SDS011;17580;50.850;4.504;2022-07-06T07:50:41;2.17;;;1.70;;
10191;SDS011;17580;50.850;4.504;2022-07-06T07:53:08;2.77;;;2.37;;
10191;SDS011;17580;50.850;4.504;2022-07-06T07:55:36;4.20;;;2.10;;
10191;SDS011;17580;50.850;4.504;2022-07-06T07:58:03;5.03;;;2.40;;
10191;SDS011;17580;50.850;4.504;2022-07-06T08:00:31;2.73;;;1.87;;
10191;SDS011;17580;50.850;4.504;2022-07-06T08:02:58;1.90;;;1.80;;
10191;SDS011;17580;50.850;4.504;2022-07-06T08:05:25;4.83;;;2.10;;
10191;SDS011;17580;50.850;4.504;2022-07-06T08:07:52;5.20;;;2.47;;
10191;SDS011;17580;50.850;4.504;2022-07-06T08:10:20;2.53;;;2.20;;
10191;SDS011;17580;50.850;4.504;2022-07-06T08:12:48;3.10;;;1.90;;
10191;SDS011;17580;50.850;4.504;2022-07-06T08:15:15;3.23;;;2.23;;
10191;SDS011;17580;50.850;4.504;2022-07-06T08:17:43;2.87;;;2.23;;
10191;SDS011;17580;50.850;4.504;2022-07-06T08:20:10;4.00;;;2.60;;
10191;SDS011;17580;50.850;4.504;2022-07-06T08:22:37;2.33;;;2.10;;
10191;SDS011;17580;50.850;4.504;2022-07-06T08:25:05;4.60;;;2.20;;
10191;SDS011;17580;50.850;4.504;2022-07-06T08:27:32;2.97;;;2.07;;
10191;SDS011;17580;50.850;4.504;2022-07-06T08:30:01;3.80;;;2.50;;
10191;SDS011;17580;50.850;4.504;2022-07-06T08:32:28;3.73;;;2.93;;
10191;SDS011;17580;50.850;4.504;2022-07-06T08:34:55;2.77;;;2.50;;
10191;SDS011;17580;50.850;4.504;2022-07-06T08:37:22;3.13;;;2.37;;
10191;SDS011;17580;50.850;4.504;2022-07-06T08:39:49;2.30;;;2.10;;
10191;SDS011;17580;50.850;4.504;2022-07-06T08:42:16;4.17;;;2.53;;
10191;SDS011;17580;50.850;4.504;2022-07-06T08:44:43;4.10;;;2.30;;
10191;SDS011;17580;50.850;4.504;2022-07-06T08:47:13;3.20;;;2.20;;
10191;SDS011;17580;50.850;4.504;2022-07-06T08:49:41;4.70;;;2.20;;
10191;SDS011;17580;50.850;4.504;2022-07-06T08:52:09;6.97;;;2.10;;
10191;SDS011;17580;50.850;4.504;2022-07-06T08:54:37;3.73;;;2.20;;
10191;SDS011;17580;50.850;4.504;2022-07-06T08:57:05;1.97;;;1.77;;
10191;SDS011;17580;50.850;4.504;2022-07-06T08:59:32;4.20;;;2.10;;
10191;SDS011;17580;50.850;4.504;2022-07-06T09:01:59;3.30;;;2.40;;
10191;SDS011;17580;50.850;4.504;2022-07-06T09:04:28;5.87;;;2.47;;
10191;SDS011;17580;50.850;4.504;2022-07-06T09:06:55;5.07;;;2.67;;
10191;SDS011;17580;50.850;4.504;2022-07-06T09:09:24;2.20;;;2.10;;
10191;SDS011;17580;50.850;4.504;2022-07-06T09:11:51;3.33;;;2.33;;
10191;SDS011;17580;50.850;4.504;2022-07-06T09:14:18;3.90;;;2.83;;
10191;SDS011;17580;50.850;4.504;2022-07-06T09:16:46;2.27;;;2.07;;
10191;SDS011;17580;50.850;4.504;2022-07-06T09:19:17;2.43;;;2.23;;
10191;SDS011;17580;50.850;4.504;2022-07-06T09:21:45;2.50;;;2.00;;
10191;SDS011;17580;50.850;4.504;2022-07-06T09:24:12;2.30;;;2.10;;
10191;SDS011;17580;50.850;4.504;2022-07-06T09:26:40;4.27;;;2.30;;
10191;SDS011;17580;50.850;4.504;2022-07-06T09:29:07;3.97;;;2.07;;
10191;SDS011;17580;50.850;4.504;2022-07-06T09:31:34;2.13;;;2.00;;
10191;SDS011;17580;50.850;4.504;2022-07-06T09:34:02;2.67;;;2.47;;
10191;SDS011;17580;50.850;4.504;2022-07-06T09:36:38;3.13;;;2.57;;
10191;SDS011;17580;50.850;4.504;2022-07-06T09:39:20;2.20;;;2.00;;
10191;SDS011;17580;50.850;4.504;2022-07-06T09:41:50;2.03;;;1.93;;
10191;SDS011;17580;50.850;4.504;2022-07-06T09:44:18;11.47;;;2.63;;
10191;SDS011;17580;50.850;4.504;2022-07-06T09:46:47;4.63;;;3.03;;
10191;SDS011;17580;50.850;4.504;2022-07-06T09:49:16;2.97;;;2.27;;
10191;SDS011;17580;50.850;4.504;2022-07-06T09:51:44;9.57;;;2.60;;
10191;SDS011;17580;50.850;4.504;2022-07-06T09:54:12;2.43;;;2.23;;
10191;SDS011;17580;50.850;4.504;2022-07-06T09:56:41;3.43;;;2.20;;
10191;SDS011;17580;50.850;4.504;2022-07-06T09:59:09;2.20;;;2.10;;
10191;SDS011;17580;50.850;4.504;2022-07-06T10:01:36;1.90;;;1.80;;
10191;SDS011;17580;50.850;4.504;2022-07-06T10:04:05;3.73;;;1.97;;
10191;SDS011;17580;50.850;4.504;2022-07-06T10:06:32;2.30;;;2.10;;
10191;SDS011;17580;50.850;4.504;2022-07-06T10:08:59;4.83;;;2.57;;
10191;SDS011;17580;50.850;4.504;2022-07-06T10:11:27;2.27;;;2.03;;
10191;SDS011;17580;50.850;4.504;2022-07-06T10:13:57;3.90;;;2.00;;
10191;SDS011;17580;50.850;4.504;2022-07-06T10:16:24;3.87;;;2.40;;
10191;SDS011;17580;50.850;4.504;2022-07-06T10:18:51;1.83;;;1.50;;
10191;SDS011;17580;50.850;4.504;2022-07-06T10:21:20;3.33;;;2.07;;
10191;SDS011;17580;50.850;4.504;2022-07-06T10:23:48;4.03;;;2.20;;
10191;SDS011;17580;50.850;4.504;2022-07-06T10:26:16;2.10;;;1.73;;
10191;SDS011;17580;50.850;4.504;2022-07-06T10:28:44;2.87;;;2.13;;
10191;SDS011;17580;50.850;4.504;2022-07-06T10:31:14;3.03;;;2.23;;
10191;SDS011;17580;50.850;4.504;2022-07-06T10:33:42;6.73;;;2.43;;
10191;SDS011;17580;50.850;4.504;2022-07-06T10:36:10;5.07;;;2.40;;
10191;SDS011;17580;50.850;4.504;2022-07-06T10:38:38;2.87;;;2.10;;
10191;SDS011;17580;50.850;4.504;2022-07-06T10:41:07;3.57;;;2.00;;
10191;SDS011;17580;50.850;4.504;2022-07-06T10:43:34;4.50;;;2.77;;
10191;SDS011;17580;50.850;4.504;2022-07-06T10:46:06;2.63;;;1.80;;
10191;SDS011;17580;50.850;4.504;2022-07-06T10:48:37;3.00;;;1.70;;
10191;SDS011;17580;50.850;4.504;2022-07-06T10:51:05;1.63;;;1.53;;
10191;SDS011;17580;50.850;4.504;2022-07-06T10:53:33;3.20;;;1.73;;
10191;SDS011;17580;50.850;4.504;2022-07-06T10:56:03;2.07;;;1.40;;
10191;SDS011;17580;50.850;4.504;2022-07-06T10:58:38;6.80;;;1.93;;
10191;SDS011;17580;50.850;4.504;2022-07-06T11:01:07;3.67;;;1.63;;
10191;SDS011;17580;50.850;4.504;2022-07-06T11:03:37;1.63;;;1.33;;
10191;SDS011;17580;50.850;4.504;2022-07-06T11:06:07;1.70;;;1.60;;
10191;SDS011;17580;50.850;4.504;2022-07-06T11:08:45;2.83;;;1.70;;
10191;SDS011;17580;50.850;4.504;2022-07-06T11:11:17;1.60;;;1.50;;
10191;SDS011;17580;50.850;4.504;2022-07-06T11:13:50;4.77;;;2.10;;
10191;SDS011;17580;50.850;4.504;2022-07-06T11:16:23;2.57;;;2.17;;
10191;SDS011;17580;50.850;4.504;2022-07-06T11:19:03;4.07;;;2.30;;
10191;SDS011;17580;50.850;4.504;2022-07-06T11:21:39;2.77;;;1.97;;
10191;SDS011;17580;50.850;4.504;2022-07-06T11:24:10;1.87;;;1.77;;
10191;SDS011;17580;50.850;4.504;2022-07-06T11:26:38;4.80;;;2.57;;
10191;SDS011;17580;50.850;4.504;2022-07-06T11:29:08;1.73;;;1.63;;
10191;SDS011;17580;50.850;4.504;2022-07-06T11:31:37;2.53;;;2.13;;
10191;SDS011;17580;50.850;4.504;2022-07-06T11:34:07;2.13;;;1.60;;
10191;SDS011;17580;50.850;4.504;2022-07-06T11:36:35;2.33;;;1.73;;
10191;SDS011;17580;50.850;4.504;2022-07-06T11:39:03;5.90;;;2.20;;
10191;SDS011;17580;50.850;4.504;2022-07-06T11:41:31;2.17;;;1.93;;
10191;SDS011;17580;50.850;4.504;2022-07-06T11:43:58;2.90;;;1.90;;
10191;SDS011;17580;50.850;4.504;2022-07-06T11:46:26;3.10;;;1.80;;
10191;SDS011;17580;50.850;4.504;2022-07-06T11:48:55;1.73;;;1.53;;
10191;SDS011;17580;50.850;4.504;2022-07-06T11:51:25;2.00;;;1.80;;
10191;SDS011;17580;50.850;4.504;2022-07-06T11:53:54;4.63;;;2.10;;
10191;SDS011;17580;50.850;4.504;2022-07-06T11:56:22;1.77;;;1.67;;
10191;SDS011;17580;50.850;4.504;2022-07-06T11:58:51;2.97;;;1.80;;
10191;SDS011;17580;50.850;4.504;2022-07-06T12:01:19;2.17;;;1.63;;
10191;SDS011;17580;50.850;4.504;2022-07-06T12:03:46;4.33;;;2.20;;
10191;SDS011;17580;50.850;4.504;2022-07-06T12:06:15;1.70;;;1.60;;
10191;SDS011;17580;50.850;4.504;2022-07-06T12:08:46;4.07;;;2.27;;
10191;SDS011;17580;50.850;4.504;2022-07-06T12:11:20;3.77;;;2.20;;
10191;SDS011;17580;50.850;4.504;2022-07-06T12:13:50;3.43;;;2.50;;
10191;SDS011;17580;50.850;4.504;2022-07-06T12:16:17;2.63;;;1.90;;
10191;SDS011;17580;50.850;4.504;2022-07-06T12:18:46;2.50;;;2.20;;
10191;SDS011;17580;50.850;4.504;2022-07-06T12:21:15;2.43;;;2.17;;
10191;SDS011;17580;50.850;4.504;2022-07-06T12:23:44;2.03;;;1.90;;
10191;SDS011;17580;50.850;4.504;2022-07-06T12:26:14;3.63;;;2.30;;
10191;SDS011;17580;50.850;4.504;2022-07-06T12:28:42;4.47;;;2.20;;
10191;SDS011;17580;50.850;4.504;2022-07-06T12:31:09;3.77;;;2.40;;
10191;SDS011;17580;50.850;4.504;2022-07-06T12:33:37;2.30;;;2.10;;
10191;SDS011;17580;50.850;4.504;2022-07-06T12:36:11;2.73;;;2.00;;
10191;SDS011;17580;50.850;4.504;2022-07-06T12:38:43;2.63;;;1.60;;
10191;SDS011;17580;50.850;4.504;2022-07-06T12:41:25;3.10;;;1.90;;
10191;SDS011;17580;50.850;4.504;2022-07-06T12:43:59;3.27;;;2.33;;
10191;SDS011;17580;50.850;4.504;2022-07-06T12:46:30;1.97;;;1.73;;
10191;SDS011;17580;50.850;4.504;2022-07-06T12:49:02;1.70;;;1.60;;
10191;SDS011;17580;50.850;4.504;2022-07-06T12:51:52;2.90;;;1.73;;
10191;SDS011;17580;50.850;4.504;2022-07-06T12:54:25;2.07;;;1.50;;
10191;SDS011;17580;50.850;4.504;2022-07-06T12:57:08;4.60;;;1.50;;
10191;SDS011;17580;50.850;4.504;2022-07-06T12:59:38;4.20;;;2.10;;
10191;SDS011;17580;50.850;4.504;2022-07-06T13:02:07;2.23;;;2.03;;
10191;SDS011;17580;50.850;4.504;2022-07-06T13:04:36;2.10;;;1.90;;
10191;SDS011;17580;50.850;4.504;2022-07-06T13:07:03;1.87;;;1.70;;
10191;SDS011;17580;50.850;4.504;2022-07-06T13:09:31;1.93;;;1.47;;
10191;SDS011;17580;50.850;4.504;2022-07-06T13:11:58;3.53;;;1.93;;
10191;SDS011;17580;50.850;4.504;2022-07-06T13:14:27;1.90;;;1.80;;
10191;SDS011;17580;50.850;4.504;2022-07-06T13:16:54;3.07;;;1.50;;
10191;SDS011;17580;50.850;4.504;2022-07-06T13:19:21;2.63;;;1.70;;
10191;SDS011;17580;50.850;4.504;2022-07-06T13:21:48;3.60;;;1.67;;
10191;SDS011;17580;50.850;4.504;2022-07-06T13:24:15;2.90;;;1.47;;
10191;SDS011;17580;50.850;4.504;2022-07-06T13:26:42;2.30;;;1.80;;
10191;SDS011;17580;50.850;4.504;2022-07-06T13:29:09;2.27;;;1.60;;
10191;SDS011;17580;50.850;4.504;2022-07-06T13:31:38;3.53;;;2.10;;
10191;SDS011;17580;50.850;4.504;2022-07-06T13:34:06;1.80;;;1.70;;
10191;SDS011;17580;50.850;4.504;2022-07-06T13:36:34;1.60;;;1.50;;
10191;SDS011;17580;50.850;4.504;2022-07-06T13:39:01;3.00;;;1.80;;
10191;SDS011;17580;50.850;4.504;2022-07-06T13:41:29;4.00;;;1.80;;
10191;SDS011;17580;50.850;4.504;2022-07-06T13:43:56;2.07;;;1.63;;
10191;SDS011;17580;50.850;4.504;2022-07-06T13:46:23;1.87;;;1.57;;
10191;SDS011;17580;50.850;4.504;2022-07-06T13:48:53;1.63;;;1.53;;
10191;SDS011;17580;50.850;4.504;2022-07-06T13:51:21;2.53;;;1.60;;
10191;SDS011;17580;50.850;4.504;2022-07-06T13:53:49;3.20;;;1.80;;
10191;SDS011;17580;50.850;4.504;2022-07-06T13:56:16;3.37;;;2.20;;
10191;SDS011;17580;50.850;4.504;2022-07-06T13:58:43;1.73;;;1.63;;
10191;SDS011;17580;50.850;4.504;2022-07-06T14:01:10;3.10;;;1.77;;
10191;SDS011;17580;50.850;4.504;2022-07-06T14:03:38;2.23;;;1.73;;
10191;SDS011;17580;50.850;4.504;2022-07-06T14:06:07;2.23;;;2.00;;
10191;SDS011;17580;50.850;4.504;2022-07-06T14:08:35;1.50;;;1.40;;
10191;SDS011;17580;50.850;4.504;2022-07-06T14:11:03;2.63;;;2.07;;
10191;SDS011;17580;50.850;4.504;2022-07-06T14:13:30;1.97;;;1.77;;
10191;SDS011;17580;50.850;4.504;2022-07-06T14:15:58;5.13;;;2.07;;
10191;SDS011;17580;50.850;4.504;2022-07-06T14:18:25;1.50;;;1.40;;
10191;SDS011;17580;50.850;4.504;2022-07-06T14:20:52;3.30;;;1.80;;
10191;SDS011;17580;50.850;4.504;2022-07-06T14:23:21;2.83;;;1.70;;
10191;SDS011;17580;50.850;4.504;2022-07-06T14:25:49;2.47;;;2.20;;
10191;SDS011;17580;50.850;4.504;2022-07-06T14:28:16;5.70;;;2.50;;
10191;SDS011;17580;50.850;4.504;2022-07-06T14:30:44;2.30;;;1.93;;
10191;SDS011;17580;50.850;4.504;2022-07-06T14:33:12;1.70;;;1.60;;
10191;SDS011;17580;50.850;4.504;2022-07-06T14:35:41;1.60;;;1.50;;
10191;SDS011;17580;50.850;4.504;2022-07-06T14:38:10;4.93;;;1.73;;
10191;SDS011;17580;50.850;4.504;2022-07-06T14:40:38;1.40;;;1.40;;
10191;SDS011;17580;50.850;4.504;2022-07-06T14:43:05;1.20;;;1.20;;
10191;SDS011;17580;50.850;4.504;2022-07-06T14:45:32;1.80;;;1.63;;
10191;SDS011;17580;50.850;4.504;2022-07-06T14:47:59;1.80;;;1.70;;
10191;SDS011;17580;50.850;4.504;2022-07-06T14:50:26;3.03;;;1.60;;
10191;SDS011;17580;50.850;4.504;2022-07-06T14:52:54;1.90;;;1.67;;